createdAt,value
2018-12-14T00:00:01.335Z,14.87
2018-12-14T00:02:30.226Z,13.57
2018-12-14T00:04:57.861Z,14.63
2018-12-14T00:07:25.506Z,14.60
2018-12-14T00:09:54.911Z,16.00
2018-12-14T00:12:22.944Z,16.37
2018-12-14T00:14:50.652Z,17.37
2018-12-14T00:17:18.397Z,16.57
2018-12-14T00:19:46.055Z,17.40
2018-12-14T00:22:13.708Z,17.87
2018-12-14T00:24:41.744Z,18.30
2018-12-14T00:27:10.037Z,18.37
2018-12-14T00:29:38.301Z,20.17
2018-12-14T00:32:06.045Z,17.70
2018-12-14T00:34:33.875Z,19.37
2018-12-14T00:37:01.691Z,18.80
2018-12-14T00:39:29.456Z,19.60
2018-12-14T00:41:57.116Z,19.17
2018-12-14T00:44:24.767Z,17.73
2018-12-14T00:46:52.401Z,16.50
2018-12-14T00:49:20.057Z,18.20
2018-12-14T00:51:47.756Z,18.60
2018-12-14T00:54:15.489Z,17.13
2018-12-14T00:56:43.181Z,16.00
2018-12-14T00:59:10.857Z,16.27
2018-12-14T01:01:38.513Z,15.80
2018-12-14T01:04:06.209Z,18.67
2018-12-14T01:06:33.883Z,18.70
2018-12-14T01:09:01.605Z,18.60
2018-12-14T01:11:29.383Z,18.43
2018-12-14T01:13:57.049Z,19.90
2018-12-14T01:16:24.767Z,17.50
2018-12-14T01:18:52.387Z,18.43
2018-12-14T01:21:20.097Z,16.97
2018-12-14T01:23:47.893Z,18.07
2018-12-14T01:26:15.785Z,19.10
2018-12-14T01:28:43.440Z,16.30
2018-12-14T01:31:11.094Z,16.90
2018-12-14T01:33:38.759Z,18.10
2018-12-14T01:36:06.408Z,14.67
2018-12-14T01:38:34.058Z,15.00
2018-12-14T01:41:01.738Z,15.97
2018-12-14T01:43:29.372Z,15.30
2018-12-14T01:45:56.985Z,14.00
2018-12-14T01:48:24.685Z,14.30
2018-12-14T01:50:52.303Z,14.20
2018-12-14T01:53:19.938Z,14.10
2018-12-14T01:55:47.671Z,13.63
2018-12-14T01:58:15.312Z,15.47
2018-12-14T02:00:42.943Z,16.17
2018-12-14T02:03:10.604Z,15.30
2018-12-14T02:05:38.251Z,17.83
2018-12-14T02:08:05.905Z,17.27
2018-12-14T02:10:33.623Z,17.90
2018-12-14T02:13:01.337Z,18.30
2018-12-14T02:15:29.172Z,17.73
2018-12-14T02:17:56.847Z,16.17
2018-12-14T02:20:24.482Z,19.67
2018-12-14T02:22:52.138Z,19.60
2018-12-14T02:25:19.841Z,18.67
2018-12-14T02:27:47.509Z,18.50
2018-12-14T02:30:26.887Z,20.80
2018-12-14T02:32:54.548Z,18.83
2018-12-14T02:35:22.207Z,18.97
2018-12-14T02:37:50.131Z,19.10
2018-12-14T02:40:17.773Z,17.70
2018-12-14T02:42:46.320Z,18.30
2018-12-14T02:45:14.214Z,19.57
2018-12-14T02:47:41.971Z,19.47
2018-12-14T02:50:09.665Z,18.43
2018-12-14T02:52:37.570Z,17.40
2018-12-14T02:55:05.371Z,17.90
2018-12-14T02:57:33.053Z,18.60
2018-12-14T03:00:00.707Z,18.70
2018-12-14T03:02:28.597Z,18.90
2018-12-14T03:04:56.268Z,22.03
2018-12-14T03:07:23.935Z,20.13
2018-12-14T03:09:51.577Z,18.33
2018-12-14T03:12:26.517Z,16.80
2018-12-14T03:14:49.039Z,16.63
2018-12-14T03:17:16.948Z,18.00
2018-12-14T03:19:44.751Z,25.47
2018-12-14T03:22:13.868Z,13.33
2018-12-14T03:24:41.632Z,12.10
2018-12-14T03:27:09.540Z,12.40
2018-12-14T03:29:37.226Z,12.57
2018-12-14T03:32:04.948Z,12.93
2018-12-14T03:34:32.664Z,12.27
2018-12-14T03:37:00.328Z,11.93
2018-12-14T03:39:28.054Z,11.50
2018-12-14T03:41:55.769Z,11.47
2018-12-14T03:44:23.445Z,10.93
2018-12-14T03:46:51.112Z,11.90
2018-12-14T03:49:18.796Z,11.03
2018-12-14T03:51:46.432Z,9.57
2018-12-14T03:54:14.142Z,10.50
2018-12-14T03:56:41.856Z,10.33
2018-12-14T03:59:09.519Z,9.93
2018-12-14T04:01:37.257Z,10.30
2018-12-14T04:04:04.945Z,11.10
2018-12-14T04:06:32.602Z,10.90
2018-12-14T04:09:00.399Z,9.20
2018-12-14T04:11:28.124Z,10.13
2018-12-14T04:13:55.826Z,10.87
2018-12-14T04:16:23.485Z,10.73
2018-12-14T04:18:51.194Z,10.07
2018-12-14T04:21:18.917Z,10.00
2018-12-14T04:23:46.571Z,8.83
2018-12-14T04:26:14.227Z,7.90
2018-12-14T04:28:41.841Z,8.93
2018-12-14T04:31:09.517Z,7.73
2018-12-14T04:33:37.311Z,8.17
2018-12-14T04:36:04.967Z,8.30
2018-12-14T04:38:32.585Z,9.30
2018-12-14T04:41:00.277Z,8.37
2018-12-14T04:43:27.955Z,8.77
2018-12-14T04:45:55.628Z,7.67
2018-12-14T04:48:23.375Z,7.20
2018-12-14T04:50:51.076Z,7.80
2018-12-14T04:53:18.815Z,9.80
2018-12-14T04:55:46.550Z,8.83
2018-12-14T04:58:14.288Z,9.70
2018-12-14T05:00:41.994Z,9.17
2018-12-14T05:03:09.634Z,8.43
2018-12-14T05:05:37.267Z,9.83
2018-12-14T05:08:05.067Z,9.13
2018-12-14T05:10:32.692Z,9.97
2018-12-14T05:13:00.340Z,9.40
2018-12-14T05:15:27.993Z,9.30
2018-12-14T05:17:55.749Z,9.50
2018-12-14T05:20:23.409Z,9.50
2018-12-14T05:22:51.046Z,10.13
2018-12-14T05:25:18.685Z,10.00
2018-12-14T05:27:46.329Z,10.37
2018-12-14T05:30:14.166Z,9.20
2018-12-14T05:32:41.817Z,10.70
2018-12-14T05:35:09.570Z,11.60
2018-12-14T05:37:37.230Z,10.97
2018-12-14T05:40:05.057Z,10.17
2018-12-14T05:42:32.721Z,9.47
2018-12-14T05:45:00.397Z,10.50
2018-12-14T05:47:28.177Z,11.47
2018-12-14T05:49:56.003Z,10.03
2018-12-14T05:52:23.704Z,9.87
2018-12-14T05:54:51.755Z,8.90
2018-12-14T05:57:19.401Z,9.20
2018-12-14T05:59:47.069Z,10.40
2018-12-14T06:02:14.762Z,9.27
2018-12-14T06:04:42.558Z,8.37
2018-12-14T06:07:10.192Z,9.67
2018-12-14T06:09:38.033Z,9.03
2018-12-14T06:12:07.266Z,10.53
2018-12-14T06:14:34.984Z,9.43
2018-12-14T06:17:02.631Z,8.47
2018-12-14T06:19:30.425Z,10.73
2018-12-14T06:21:58.245Z,11.33
2018-12-14T06:24:25.930Z,11.47
2018-12-14T06:26:53.593Z,10.73
2018-12-14T06:29:21.256Z,9.40
2018-12-14T06:31:48.886Z,10.10
2018-12-14T06:34:16.589Z,12.47
2018-12-14T06:36:44.352Z,11.93
2018-12-14T06:39:12.052Z,11.40
2018-12-14T06:41:40.268Z,12.10
2018-12-14T06:44:07.960Z,11.80
2018-12-14T06:46:35.572Z,11.93
2018-12-14T06:49:03.263Z,10.57
2018-12-14T06:51:30.949Z,12.10
2018-12-14T06:53:58.603Z,11.93
2018-12-14T06:56:26.339Z,11.67
2018-12-14T06:58:54.236Z,12.27
2018-12-14T07:01:21.995Z,12.00
2018-12-14T07:03:49.824Z,13.60
2018-12-14T07:06:17.600Z,12.33
2018-12-14T07:08:45.243Z,11.37
2018-12-14T07:11:12.985Z,11.50
2018-12-14T07:13:40.687Z,12.93
2018-12-14T07:16:08.351Z,12.93
2018-12-14T07:18:38.765Z,14.23
2018-12-14T07:21:06.783Z,14.80
2018-12-14T07:23:34.426Z,19.20
2018-12-14T07:26:02.105Z,18.97
2018-12-14T07:28:29.735Z,14.73
2018-12-14T07:30:57.386Z,13.43
2018-12-14T07:33:25.003Z,13.10
2018-12-14T07:35:52.641Z,12.63
2018-12-14T07:38:20.246Z,14.20
2018-12-14T07:40:47.890Z,13.73
2018-12-14T07:43:15.628Z,12.20
2018-12-14T07:45:43.299Z,13.40
2018-12-14T07:48:10.966Z,13.00
2018-12-14T07:50:38.710Z,15.03
2018-12-14T07:53:09.135Z,15.70
2018-12-14T07:55:36.338Z,14.90
2018-12-14T07:58:04.031Z,14.27
2018-12-14T08:00:31.774Z,15.87
2018-12-14T08:02:59.497Z,13.90
2018-12-14T08:05:27.206Z,15.63
2018-12-14T08:07:54.905Z,16.67
2018-12-14T08:10:22.975Z,16.90
2018-12-14T08:12:52.027Z,16.47
2018-12-14T08:15:20.063Z,17.97
2018-12-14T08:17:47.720Z,16.10
2018-12-14T08:20:17.278Z,15.77
2018-12-14T08:22:45.065Z,16.37
2018-12-14T08:25:12.827Z,15.73
2018-12-14T08:27:40.523Z,18.90
2018-12-14T08:30:09.278Z,16.37
2018-12-14T08:32:36.969Z,15.53
2018-12-14T08:35:05.661Z,16.47
2018-12-14T08:37:33.128Z,15.17
2018-12-14T08:40:00.890Z,14.53
2018-12-14T08:42:28.712Z,15.13
2018-12-14T08:44:56.430Z,14.87
2018-12-14T08:47:24.085Z,17.03
2018-12-14T08:49:51.739Z,17.63
2018-12-14T08:52:19.504Z,18.43
2018-12-14T08:54:47.130Z,17.40
2018-12-14T08:57:14.850Z,19.33
2018-12-14T08:59:42.532Z,17.57
2018-12-14T09:02:10.295Z,18.13
2018-12-14T09:04:38.039Z,19.47
2018-12-14T09:07:05.728Z,17.23
2018-12-14T09:09:33.387Z,17.27
2018-12-14T09:12:01.057Z,16.93
2018-12-14T09:14:28.749Z,19.60
2018-12-14T09:16:56.397Z,21.83
2018-12-14T09:19:24.057Z,21.03
2018-12-14T09:21:51.718Z,17.77
2018-12-14T09:24:19.568Z,19.60
2018-12-14T09:26:47.368Z,18.70
2018-12-14T09:29:15.103Z,17.13
2018-12-14T09:31:42.879Z,17.67
2018-12-14T09:34:10.546Z,19.90
2018-12-14T09:36:38.189Z,16.80
2018-12-14T09:39:06.362Z,17.13
2018-12-14T09:44:00.781Z,17.13
2018-12-14T09:46:28.481Z,15.00
2018-12-14T09:48:56.183Z,14.70
2018-12-14T09:51:23.846Z,14.50
2018-12-14T09:53:51.560Z,16.40
2018-12-14T09:56:19.364Z,15.23
2018-12-14T09:58:47.060Z,13.33
2018-12-14T10:01:14.895Z,14.73
2018-12-14T10:03:42.729Z,15.97
2018-12-14T10:06:15.723Z,13.97
2018-12-14T10:08:40.828Z,13.30
2018-12-14T10:11:09.244Z,14.53
2018-12-14T10:13:36.946Z,18.50
2018-12-14T10:16:04.829Z,18.10
2018-12-14T10:18:32.640Z,16.70
2018-12-14T10:21:00.332Z,18.10
2018-12-14T10:23:28.152Z,18.37
2018-12-14T10:25:55.869Z,14.70
2018-12-14T10:28:23.601Z,13.70
2018-12-14T10:30:51.284Z,14.13
2018-12-14T10:33:18.932Z,13.37
2018-12-14T10:35:46.549Z,14.30
2018-12-14T10:38:14.266Z,14.20
2018-12-14T10:40:41.878Z,14.70
2018-12-14T10:43:09.573Z,15.00
2018-12-14T10:45:37.536Z,13.73
2018-12-14T10:48:05.250Z,14.43
2018-12-14T10:50:39.236Z,14.30
2018-12-14T10:53:04.762Z,16.70
2018-12-14T10:55:32.417Z,13.77
2018-12-14T10:58:00.290Z,14.63
2018-12-14T11:00:33.625Z,13.63
2018-12-14T11:03:01.366Z,13.83
2018-12-14T11:05:29.055Z,14.43
2018-12-14T11:07:56.747Z,13.43
2018-12-14T11:10:24.505Z,15.20
2018-12-14T11:12:52.223Z,15.73
2018-12-14T11:15:20.033Z,14.70
2018-12-14T11:17:47.731Z,14.87
2018-12-14T11:20:15.335Z,14.60
2018-12-14T11:22:43.024Z,14.97
2018-12-14T11:25:10.713Z,13.93
2018-12-14T11:27:38.387Z,13.37
2018-12-14T11:30:07.650Z,14.50
2018-12-14T11:32:35.362Z,15.57
2018-12-14T11:35:03.131Z,15.43
2018-12-14T11:37:30.857Z,13.70
2018-12-14T11:39:58.528Z,14.97
2018-12-14T11:42:26.275Z,12.97
2018-12-14T11:44:54.015Z,10.57
2018-12-14T11:47:21.947Z,10.60
2018-12-14T11:49:50.765Z,11.43
2018-12-14T11:52:18.413Z,10.90
2018-12-14T11:54:46.205Z,9.83
2018-12-14T11:57:13.968Z,11.53
2018-12-14T11:59:41.741Z,11.27
2018-12-14T12:02:09.497Z,11.90
2018-12-14T12:04:37.124Z,9.70
2018-12-14T12:07:04.840Z,9.97
2018-12-14T12:09:33.440Z,10.10
2018-12-14T12:12:01.310Z,10.30
2018-12-14T12:14:29.118Z,11.90
2018-12-14T12:16:56.856Z,10.60
2018-12-14T12:19:24.681Z,10.47
2018-12-14T12:21:53.438Z,9.67
2018-12-14T12:24:21.186Z,10.67
2018-12-14T12:26:48.923Z,12.17
2018-12-14T12:29:16.620Z,11.20
2018-12-14T12:31:44.405Z,11.17
2018-12-14T12:34:12.175Z,11.73
2018-12-14T12:36:39.958Z,9.97
2018-12-14T12:39:07.901Z,10.73
2018-12-14T12:41:35.572Z,11.73
2018-12-14T12:44:03.301Z,11.13
2018-12-14T12:46:31.115Z,11.40
2018-12-14T12:48:58.851Z,11.37
2018-12-14T12:51:26.795Z,11.07
2018-12-14T12:53:54.453Z,13.10
2018-12-14T12:56:22.223Z,10.27
2018-12-14T12:58:49.936Z,10.80
2018-12-14T13:01:17.629Z,11.60
2018-12-14T13:03:45.370Z,10.03
2018-12-14T13:06:13.000Z,10.63
2018-12-14T13:08:40.615Z,10.13
2018-12-14T13:11:08.331Z,9.70
2018-12-14T13:13:36.001Z,12.13
2018-12-14T13:16:03.743Z,10.93
2018-12-14T13:18:31.567Z,11.93
2018-12-14T13:20:59.227Z,12.20
2018-12-14T13:23:26.926Z,11.80
2018-12-14T13:25:54.548Z,11.67
2018-12-14T13:28:22.575Z,10.70
2018-12-14T13:30:50.355Z,11.57
2018-12-14T13:33:18.307Z,11.20
2018-12-14T13:35:46.025Z,10.90
2018-12-14T13:38:13.677Z,12.00
2018-12-14T13:40:41.489Z,10.93
2018-12-14T13:43:09.228Z,11.77
2018-12-14T13:45:36.907Z,10.73
2018-12-14T13:48:04.571Z,9.70
2018-12-14T13:50:32.373Z,10.97
2018-12-14T13:53:00.102Z,11.13
2018-12-14T13:55:27.744Z,9.70
2018-12-14T13:57:55.420Z,10.30
2018-12-14T14:00:23.223Z,9.70
2018-12-14T14:02:50.980Z,10.97
2018-12-14T14:05:18.730Z,10.50
2018-12-14T14:07:46.515Z,12.03
2018-12-14T14:10:14.326Z,11.73
2018-12-14T14:12:42.022Z,11.97
2018-12-14T14:15:10.026Z,11.17
2018-12-14T14:17:37.702Z,9.97
2018-12-14T14:20:06.821Z,13.50
2018-12-14T14:22:34.588Z,12.70
2018-12-14T14:25:04.367Z,12.40
2018-12-14T14:27:32.094Z,10.90
2018-12-14T14:29:59.778Z,12.33
2018-12-14T14:32:27.518Z,13.37
2018-12-14T14:34:55.218Z,12.40
2018-12-14T14:37:22.891Z,13.00
2018-12-14T14:39:50.597Z,13.00
2018-12-14T14:42:18.401Z,13.17
2018-12-14T14:44:46.024Z,13.17
2018-12-14T14:47:13.769Z,12.40
2018-12-14T14:49:41.461Z,12.10
2018-12-14T14:52:09.084Z,11.33
2018-12-14T14:54:39.863Z,12.03
2018-12-14T14:57:06.425Z,12.27
2018-12-14T14:59:34.599Z,11.87
2018-12-14T15:02:02.479Z,12.70
2018-12-14T15:04:30.154Z,14.40
2018-12-14T15:06:58.699Z,13.30
2018-12-14T15:09:26.372Z,13.87
2018-12-14T15:11:54.070Z,14.33
2018-12-14T15:14:21.794Z,12.80
2018-12-14T15:16:49.574Z,14.03
2018-12-14T15:19:17.291Z,12.80
2018-12-14T15:21:44.920Z,14.83
2018-12-14T15:24:12.828Z,14.27
2018-12-14T15:26:40.494Z,13.70
2018-12-14T15:29:08.168Z,12.73
2018-12-14T15:31:35.612Z,12.83
2018-12-14T15:34:03.264Z,13.17
2018-12-14T15:36:31.016Z,14.10
2018-12-14T15:38:58.807Z,11.60
2018-12-14T15:41:26.530Z,12.30
2018-12-14T15:43:54.170Z,12.30
2018-12-14T15:46:21.889Z,11.37
2018-12-14T15:48:49.547Z,8.30
2018-12-14T15:51:17.172Z,10.27
2018-12-14T15:53:44.797Z,8.33
2018-12-14T15:56:12.471Z,7.87
2018-12-14T15:58:40.071Z,7.50
2018-12-14T16:01:07.633Z,7.70
2018-12-14T16:03:35.038Z,7.33
2018-12-14T16:06:02.670Z,7.57
2018-12-14T16:08:30.256Z,8.13
2018-12-14T16:10:57.912Z,8.00
2018-12-14T16:13:25.542Z,8.70
2018-12-14T16:15:53.215Z,8.37
2018-12-14T16:18:20.705Z,8.50
2018-12-14T16:20:48.386Z,7.70
2018-12-14T16:23:16.353Z,8.40
2018-12-14T16:25:44.035Z,8.90
2018-12-14T16:28:11.650Z,8.37
2018-12-14T16:30:39.306Z,8.07
2018-12-14T16:33:06.961Z,7.80
2018-12-14T16:35:34.645Z,8.90
2018-12-14T16:38:02.291Z,6.53
2018-12-14T16:40:29.955Z,8.40
2018-12-14T16:42:57.588Z,7.80
2018-12-14T16:47:51.408Z,9.13
2018-12-14T16:50:19.206Z,7.77
2018-12-14T16:52:47.654Z,8.00
2018-12-14T16:55:15.496Z,8.20
2018-12-14T16:57:43.161Z,7.50
2018-12-14T17:00:10.831Z,8.87
2018-12-14T17:02:38.584Z,8.87
2018-12-14T17:05:07.291Z,8.30
2018-12-14T17:07:35.187Z,7.73
2018-12-14T17:10:03.495Z,7.70
2018-12-14T17:12:31.246Z,7.97
2018-12-14T17:14:58.858Z,7.63
2018-12-14T17:17:26.534Z,8.70
2018-12-14T17:19:54.011Z,7.53
2018-12-14T17:22:21.659Z,8.27
2018-12-14T17:24:49.334Z,7.43
2018-12-14T17:29:43.750Z,8.63
2018-12-14T17:32:11.384Z,7.67
2018-12-14T17:34:39.039Z,9.17
2018-12-14T17:37:06.712Z,7.70
2018-12-14T17:39:34.343Z,9.20
2018-12-14T17:42:02.025Z,8.50
2018-12-14T17:44:29.712Z,8.57
2018-12-14T17:46:58.074Z,8.40
2018-12-14T17:51:52.758Z,9.10
2018-12-14T17:54:20.413Z,8.20
2018-12-14T17:56:48.067Z,8.70
2018-12-14T17:59:15.699Z,8.70
2018-12-14T18:01:43.367Z,9.10
2018-12-14T18:04:11.009Z,8.33
2018-12-14T18:06:38.693Z,8.97
2018-12-14T18:09:06.445Z,8.60
2018-12-14T18:11:34.089Z,9.33
2018-12-14T18:14:01.737Z,9.90
2018-12-14T18:16:29.455Z,9.20
2018-12-14T18:18:57.111Z,9.57
2018-12-14T18:21:24.780Z,8.17
2018-12-14T18:23:52.419Z,8.77
2018-12-14T18:26:20.125Z,8.60
2018-12-14T18:28:47.951Z,9.50
2018-12-14T18:31:15.567Z,9.97
2018-12-14T18:33:43.240Z,9.70
2018-12-14T18:36:10.851Z,7.77
2018-12-14T18:38:38.483Z,9.30
2018-12-14T18:41:06.119Z,8.20
2018-12-14T18:43:33.708Z,8.70
2018-12-14T18:46:01.371Z,8.80
2018-12-14T18:48:29.031Z,7.90
2018-12-14T18:50:56.705Z,9.50
2018-12-14T18:53:24.395Z,8.87
2018-12-14T18:55:52.015Z,9.13
2018-12-14T18:58:19.683Z,9.87
2018-12-14T19:00:47.347Z,8.73
2018-12-14T19:03:15.021Z,9.20
2018-12-14T19:05:42.637Z,8.37
2018-12-14T19:08:10.332Z,8.90
2018-12-14T19:10:37.976Z,9.93
2018-12-14T19:13:05.602Z,9.90
2018-12-14T19:15:33.298Z,9.70
2018-12-14T19:18:01.013Z,8.80
2018-12-14T19:20:28.709Z,9.50
2018-12-14T19:22:56.438Z,8.83
2018-12-14T19:25:24.158Z,9.13
2018-12-14T19:27:51.833Z,10.17
2018-12-14T19:30:19.489Z,9.47
2018-12-14T19:32:47.260Z,8.80
2018-12-14T19:35:14.898Z,9.50
2018-12-14T19:37:42.593Z,9.53
2018-12-14T19:40:10.278Z,10.10
2018-12-14T19:42:37.957Z,11.00
2018-12-14T19:45:07.280Z,10.53
2018-12-14T19:47:34.994Z,10.17
2018-12-14T19:50:03.729Z,12.20
2018-12-14T19:52:31.543Z,10.00
2018-12-14T19:54:59.133Z,8.67
2018-12-14T19:57:26.814Z,9.80
2018-12-14T19:59:54.490Z,10.57
2018-12-14T20:02:22.347Z,9.00
2018-12-14T20:04:50.480Z,9.70
2018-12-14T20:07:18.215Z,9.80
2018-12-14T20:09:45.891Z,9.20
2018-12-14T20:12:13.625Z,9.20
2018-12-14T20:14:41.261Z,10.80
2018-12-14T20:17:08.991Z,10.03
2018-12-14T20:19:36.690Z,8.20
2018-12-14T20:22:04.487Z,9.20
2018-12-14T20:24:32.118Z,9.43
2018-12-14T20:27:00.016Z,10.90
2018-12-14T20:29:27.749Z,11.63
2018-12-14T20:31:55.397Z,9.93
2018-12-14T20:34:23.081Z,9.87
2018-12-14T20:36:50.770Z,10.07
2018-12-14T20:39:18.452Z,11.97
2018-12-14T20:41:46.104Z,10.27
2018-12-14T20:44:13.742Z,9.47
2018-12-14T20:46:41.416Z,10.43
2018-12-14T20:49:09.112Z,9.57
2018-12-14T20:51:36.759Z,11.27
2018-12-14T20:54:04.422Z,9.10
2018-12-14T20:56:32.119Z,10.67
2018-12-14T20:58:59.776Z,10.07
2018-12-14T21:01:27.432Z,9.57
2018-12-14T21:03:55.094Z,10.60
2018-12-14T21:06:22.764Z,10.70
2018-12-14T21:08:50.368Z,10.33
2018-12-14T21:11:18.070Z,11.03
2018-12-14T21:13:45.681Z,9.10
2018-12-14T21:16:13.340Z,10.13
2018-12-14T21:18:40.996Z,9.20
2018-12-14T21:21:08.672Z,9.17
2018-12-14T21:23:36.310Z,8.93
2018-12-14T21:26:04.002Z,8.47
2018-12-14T21:28:31.651Z,9.97
2018-12-14T21:30:59.332Z,9.17
2018-12-14T21:33:26.987Z,10.07
2018-12-14T21:35:54.623Z,9.10
2018-12-14T21:38:22.207Z,9.30
2018-12-14T21:40:49.874Z,8.80
2018-12-14T21:43:17.551Z,8.70
2018-12-14T21:45:45.264Z,8.50
2018-12-14T21:48:12.919Z,8.67
2018-12-14T21:50:40.655Z,8.23
2018-12-14T21:53:14.238Z,7.13
2018-12-14T21:55:38.166Z,9.00
2018-12-14T21:58:06.040Z,7.63
2018-12-14T22:00:33.676Z,8.90
2018-12-14T22:03:01.312Z,9.57
2018-12-14T22:05:28.962Z,9.07
2018-12-14T22:07:56.629Z,8.23
2018-12-14T22:10:24.280Z,9.70
2018-12-14T22:12:51.933Z,8.20
2018-12-14T22:15:19.558Z,8.40
2018-12-14T22:17:47.190Z,7.90
2018-12-14T22:20:14.838Z,9.60
2018-12-14T22:22:42.534Z,7.67
2018-12-14T22:25:10.189Z,7.17
2018-12-14T22:27:37.864Z,7.07
2018-12-14T22:30:05.841Z,8.00
2018-12-14T22:32:33.656Z,7.20
2018-12-14T22:35:01.309Z,8.40
2018-12-14T22:37:29.014Z,8.30
2018-12-14T22:39:56.741Z,8.00
2018-12-14T22:42:24.451Z,8.10
2018-12-14T22:44:52.096Z,7.40
2018-12-14T22:47:19.734Z,8.90
2018-12-14T22:49:47.422Z,7.50
2018-12-14T22:52:15.079Z,9.17
2018-12-14T22:54:42.690Z,8.87
2018-12-14T22:57:10.345Z,7.83
2018-12-14T22:59:38.045Z,9.50
2018-12-14T23:02:05.720Z,8.93
2018-12-14T23:04:33.371Z,8.33
2018-12-14T23:07:01.015Z,8.00
2018-12-14T23:09:28.746Z,8.40
2018-12-14T23:11:56.417Z,8.07
2018-12-14T23:14:24.050Z,7.80
2018-12-14T23:16:52.330Z,8.20
2018-12-14T23:19:20.232Z,9.23
2018-12-14T23:21:47.867Z,8.40
2018-12-14T23:24:15.537Z,8.67
2018-12-14T23:26:43.253Z,8.80
2018-12-14T23:29:10.877Z,8.30
2018-12-14T23:31:38.541Z,8.37
2018-12-14T23:34:06.158Z,8.63
2018-12-14T23:36:33.814Z,8.67
2018-12-14T23:39:01.405Z,8.27
2018-12-14T23:41:29.046Z,7.00
2018-12-14T23:43:56.677Z,8.30
2018-12-14T23:46:24.296Z,8.70
2018-12-14T23:48:51.934Z,7.83
2018-12-14T23:51:19.561Z,8.30
2018-12-14T23:53:47.201Z,8.00
2018-12-14T23:56:14.916Z,7.17
2018-12-14T23:58:42.571Z,8.60
